Time;durP1;ratioP1;P1;durP2;ratioP2;P2;SDS_P1;SDS_P2;PMS_P1;PMS_P2;Temp;Humidity;BMP_temperature;BMP_pressure;BME280_temperature;BME280_humidity;BME280_pressure;Samples;Min_cycle;Max_cycle;Signal;HPM_P1;HPM_P2
2021/07/18 00:00:30;;;;;;;18.33;4.38;;;;;;;19.18;71.68;100442.47;5064435;28;20060;-73
2021/07/18 00:02:55;;;;;;;19.15;4.47;;;;;;;19.19;71.57;100457.31;5064375;28;20036;-73
2021/07/18 00:05:21;;;;;;;22.05;5.60;;;;;;;19.10;71.80;100427.03;5064387;28;20028;-73
2021/07/18 00:07:46;;;;;;;14.23;5.13;;;;;;;19.19;71.67;100433.66;5064080;28;20108;-72
2021/07/18 00:10:12;;;;;;;18.40;4.80;;;;;;;19.17;71.58;100425.81;5064267;28;20059;-73
2021/07/18 00:12:38;;;;;;;18.15;4.60;;;;;;;19.17;71.70;100430.25;5064205;28;20021;-73
2021/07/18 00:15:05;;;;;;;18.25;5.40;;;;;;;19.07;72.08;100406.91;5062897;28;20029;-73
2021/07/18 00:17:37;;;;;;;18.77;4.75;;;;;;;19.14;72.19;100425.09;5064298;28;20032;-73
2021/07/18 00:20:04;;;;;;;18.37;5.00;;;;;;;19.11;71.92;100426.09;5064164;28;20536;-73
2021/07/18 00:22:29;;;;;;;20.02;4.95;;;;;;;19.05;72.11;100421.94;5064116;28;20021;-73
2021/07/18 00:24:54;;;;;;;18.40;4.50;;;;;;;18.98;72.42;100417.00;5064081;28;20041;-72
2021/07/18 00:27:20;;;;;;;15.45;5.50;;;;;;;18.93;72.07;100419.84;5064108;28;20331;-71
2021/07/18 00:29:45;;;;;;;17.00;5.00;;;;;;;18.86;72.42;100426.28;5063785;28;20028;-72
2021/07/18 00:32:10;;;;;;;20.17;5.45;;;;;;;18.87;72.54;100433.25;5063925;28;20036;-72
2021/07/18 00:34:36;;;;;;;16.33;4.82;;;;;;;18.84;72.28;100428.97;5063885;28;20434;-72
2021/07/18 00:37:01;;;;;;;16.15;4.32;;;;;;;18.85;72.48;100419.31;5063896;28;20024;-72
2021/07/18 00:39:26;;;;;;;14.68;4.30;;;;;;;18.90;71.98;100428.72;5063685;28;20021;-72
2021/07/18 00:41:52;;;;;;;19.15;5.25;;;;;;;18.86;72.00;100421.03;5063839;28;20488;-72
2021/07/18 00:44:17;;;;;;;22.02;4.40;;;;;;;18.81;72.11;100422.09;5063831;28;20032;-72
2021/07/18 00:46:42;;;;;;;14.75;4.10;;;;;;;18.84;71.99;100431.59;5063813;28;20465;-72
2021/07/18 00:49:08;;;;;;;14.98;4.90;;;;;;;18.85;71.76;100425.41;5063726;28;20032;-73
2021/07/18 00:51:33;;;;;;;15.02;4.57;;;;;;;18.83;71.76;100420.22;5063857;28;20046;-72
2021/07/18 00:54:00;;;;;;;14.82;4.82;;;;;;;18.80;71.77;100425.63;5063656;28;20528;-73
2021/07/18 00:56:25;;;;;;;17.70;4.15;;;;;;;18.86;71.40;100415.75;5063690;28;20047;-73
2021/07/18 00:58:54;;;;;;;16.90;4.88;;;;;;;18.78;71.34;100422.22;5063646;28;20021;-72
2021/07/18 01:01:20;;;;;;;17.55;4.57;;;;;;;18.72;71.52;100406.69;5063907;28;20033;-73
2021/07/18 01:03:46;;;;;;;18.05;4.38;;;;;;;18.68;71.44;100428.78;5063846;28;20024;-73
2021/07/18 01:06:11;;;;;;;16.17;4.72;;;;;;;18.65;71.69;100418.38;5062764;28;20050;-73
2021/07/18 01:08:37;;;;;;;14.73;4.28;;;;;;;18.69;71.20;100415.56;5063449;28;20028;-73
2021/07/18 01:11:02;;;;;;;9.50;3.83;;;;;;;18.62;71.13;100423.78;5063633;28;20017;-72
2021/07/18 01:13:28;;;;;;;10.85;3.13;;;;;;;18.57;70.92;100410.81;5063967;28;20032;-72
2021/07/18 01:15:53;;;;;;;10.60;3.72;;;;;;;18.48;70.59;100419.97;5064290;28;20048;-73
2021/07/18 01:18:18;;;;;;;16.63;3.75;;;;;;;18.44;70.74;100415.72;5063766;28;20056;-72
2021/07/18 01:20:44;;;;;;;10.30;3.35;;;;;;;18.38;70.48;100405.47;5063880;28;20025;-72
2021/07/18 01:23:10;;;;;;;9.50;3.47;;;;;;;18.41;70.38;100400.97;5064066;28;20036;-72
2021/07/18 01:25:36;;;;;;;13.23;3.88;;;;;;;18.44;70.35;100407.84;5063931;28;20031;-72
2021/07/18 01:28:10;;;;;;;13.65;3.70;;;;;;;18.45;70.28;100399.06;5063522;28;20032;-71
2021/07/18 01:30:35;;;;;;;9.70;3.08;;;;;;;18.46;70.38;100395.50;5063790;28;20031;-72
2021/07/18 01:33:01;;;;;;;15.07;3.28;;;;;;;18.51;69.79;100388.28;5063165;28;20076;-72
2021/07/18 01:35:27;;;;;;;16.98;3.92;;;;;;;18.41;69.13;100381.69;5063435;28;20078;-72
2021/07/18 01:37:53;;;;;;;14.43;3.63;;;;;;;18.39;69.15;100394.91;5063320;28;20091;-72
2021/07/18 01:40:19;;;;;;;13.77;3.03;;;;;;;18.38;68.70;100387.09;5062925;28;20032;-72
2021/07/18 01:42:44;;;;;;;7.65;3.40;;;;;;;18.35;68.50;100389.84;5061584;28;20040;-72
2021/07/18 01:45:10;;;;;;;18.35;3.28;;;;;;;18.36;68.09;100392.41;5062750;28;20033;-72
2021/07/18 01:47:35;;;;;;;9.98;3.38;;;;;;;18.36;67.45;100381.03;5062855;28;20021;-72
2021/07/18 01:50:03;;;;;;;10.32;2.75;;;;;;;18.41;66.47;100386.94;5063179;28;20014;-72
2021/07/18 01:52:29;;;;;;;9.80;3.28;;;;;;;18.42;65.69;100386.03;5061915;28;20029;-72
2021/07/18 01:54:55;;;;;;;10.02;3.17;;;;;;;18.43;65.23;100393.00;5063034;28;20072;-72
2021/07/18 01:57:20;;;;;;;10.60;2.30;;;;;;;18.38;65.09;100387.94;5063128;28;20029;-72
2021/07/18 01:59:46;;;;;;;7.68;2.35;;;;;;;18.38;64.79;100385.31;5062843;28;20025;-72
2021/07/18 02:02:13;;;;;;;8.77;2.30;;;;;;;18.36;64.45;100397.66;5062795;28;20040;-71
2021/07/18 02:04:38;;;;;;;8.73;2.42;;;;;;;18.34;63.81;100375.84;5062813;28;20049;-71
2021/07/18 02:07:04;;;;;;;8.25;2.25;;;;;;;18.31;63.58;100382.09;5062833;28;20036;-71
2021/07/18 02:09:30;;;;;;;12.70;3.10;;;;;;;18.29;63.41;100390.97;5062840;28;20029;-72
2021/07/18 02:11:56;;;;;;;8.35;2.42;;;;;;;18.38;61.93;100400.22;5063012;28;20040;-72
2021/07/18 02:14:22;;;;;;;9.68;2.85;;;;;;;18.35;61.26;100402.97;5062990;28;20401;-70
2021/07/18 02:16:49;;;;;;;5.38;2.00;;;;;;;18.37;60.22;100401.97;5064545;28;20017;-71
2021/07/18 02:19:15;;;;;;;6.88;1.88;;;;;;;18.41;59.69;100395.69;5066459;28;20104;-71
2021/07/18 02:21:42;;;;;;;7.15;2.72;;;;;;;18.36;59.99;100381.88;5066553;28;20108;-71
2021/07/18 02:24:08;;;;;;;10.05;2.13;;;;;;;18.32;59.75;100388.19;5064795;28;20021;-71
2021/07/18 02:26:34;;;;;;;5.85;2.22;;;;;;;18.25;59.95;100400.72;5066445;28;20033;-71
2021/07/18 02:29:00;;;;;;;7.35;1.80;;;;;;;18.26;60.00;100409.47;5066269;28;20032;-72
2021/07/18 02:31:27;;;;;;;8.85;1.98;;;;;;;18.22;60.62;100406.13;5066429;28;20203;-71
2021/07/18 02:33:52;;;;;;;11.13;2.22;;;;;;;18.24;60.85;100398.16;5066435;28;20021;-71
2021/07/18 02:36:17;;;;;;;8.98;2.25;;;;;;;18.24;60.50;100409.53;5064836;28;20021;-72
2021/07/18 02:38:43;;;;;;;8.43;2.17;;;;;;;18.14;60.60;100408.19;5066194;28;20021;-71
2021/07/18 02:41:09;;;;;;;5.18;2.03;;;;;;;18.16;61.08;100398.47;5066159;28;20025;-72
2021/07/18 02:43:34;;;;;;;11.35;2.13;;;;;;;18.09;60.89;100396.06;5066113;28;20103;-72
2021/07/18 02:46:00;;;;;;;7.25;2.47;;;;;;;18.03;60.60;100385.81;5066078;28;20029;-72
2021/07/18 02:48:25;;;;;;;7.35;2.10;;;;;;;18.02;60.29;100384.09;5065788;28;20055;-72
2021/07/18 02:50:50;;;;;;;7.07;2.17;;;;;;;18.00;59.41;100388.56;5066052;28;20055;-72
2021/07/18 02:53:16;;;;;;;10.95;2.47;;;;;;;17.99;59.30;100389.47;5065806;28;20021;-71
2021/07/18 02:55:42;;;;;;;9.50;2.13;;;;;;;18.00;58.70;100400.84;5065926;28;20038;-72
2021/07/18 02:58:08;;;;;;;8.68;2.40;;;;;;;17.93;59.09;100373.94;5065962;28;20083;-72
2021/07/18 03:00:33;;;;;;;7.35;2.15;;;;;;;17.96;58.88;100405.34;5065538;28;20047;-70
2021/07/18 03:02:58;;;;;;;6.63;2.17;;;;;;;17.96;58.90;100413.22;5066133;28;20012;-71
2021/07/18 03:05:24;;;;;;;12.60;3.10;;;;;;;17.97;59.11;100412.31;5065786;28;20024;-71
2021/07/18 03:07:49;;;;;;;5.43;2.20;;;;;;;17.90;59.21;100398.56;5065663;28;20017;-72
2021/07/18 03:10:16;;;;;;;4.97;1.90;;;;;;;17.96;58.99;100384.34;5065340;28;20105;-71
2021/07/18 03:12:42;;;;;;;6.88;2.20;;;;;;;17.98;58.48;100364.13;5064016;28;20071;-73
2021/07/18 03:15:10;;;;;;;6.25;2.15;;;;;;;17.95;58.85;100373.00;5065594;28;20025;-72
2021/07/18 03:17:36;;;;;;;5.57;2.22;;;;;;;18.05;58.41;100383.97;5065488;28;20029;-73
2021/07/18 03:20:04;;;;;;;6.72;2.13;;;;;;;18.05;58.56;100383.13;5065327;28;20086;-72
2021/07/18 03:22:32;;;;;;;8.40;2.53;;;;;;;18.25;58.26;100397.22;5065319;28;20063;-73
2021/07/18 03:24:57;;;;;;;7.05;2.17;;;;;;;18.46;58.18;100390.25;5065325;28;20055;-73
2021/07/18 03:27:23;;;;;;;9.93;2.55;;;;;;;18.67;57.47;100395.53;5064989;28;20025;-73
2021/07/18 03:29:48;;;;;;;5.60;2.10;;;;;;;18.73;56.73;100392.63;5064876;28;20490;-72
2021/07/18 03:32:13;;;;;;;6.75;2.53;;;;;;;18.70;56.41;100408.53;5065236;28;20021;-72
2021/07/18 03:34:39;;;;;;;8.70;2.72;;;;;;;18.76;56.63;100405.63;5065197;28;20029;-72
2021/07/18 03:37:04;;;;;;;4.30;2.00;;;;;;;19.02;56.19;100398.41;5065017;28;20108;-72
2021/07/18 03:39:30;;;;;;;6.18;2.40;;;;;;;19.24;54.89;100405.34;5064584;28;20029;-72
2021/07/18 03:41:55;;;;;;;5.38;1.98;;;;;;;19.41;54.12;100409.00;5065198;28;20024;-72
2021/07/18 03:44:20;;;;;;;6.40;2.20;;;;;;;19.48;52.96;100413.06;5065009;28;20029;-73
2021/07/18 03:46:46;;;;;;;5.80;1.80;;;;;;;19.33;53.05;100406.69;5064961;28;20032;-72
2021/07/18 03:49:11;;;;;;;8.48;2.38;;;;;;;19.37;53.62;100402.16;5064617;28;20025;-72
2021/07/18 03:51:37;;;;;;;7.20;1.90;;;;;;;19.62;52.51;100395.75;5065064;28;20047;-73
2021/07/18 03:54:02;;;;;;;5.03;2.20;;;;;;;20.00;51.81;100379.91;5063342;28;20118;-73
2021/07/18 03:56:28;;;;;;;7.63;2.30;;;;;;;20.40;51.27;100371.84;5064846;28;20033;-73
2021/07/18 03:58:53;;;;;;;4.25;2.03;;;;;;;20.83;50.01;100367.91;5064391;28;20027;-73
2021/07/18 04:01:19;;;;;;;5.50;2.55;;;;;;;21.17;49.68;100387.28;5063117;28;20017;-73
2021/07/18 04:03:49;;;;;;;7.55;2.40;;;;;;;21.40;49.43;100384.34;5064604;28;20053;-73
2021/07/18 04:06:15;;;;;;;6.53;2.00;;;;;;;21.67;48.85;100381.09;5064591;28;20029;-73
2021/07/18 04:08:41;;;;;;;8.93;2.70;;;;;;;21.97;48.33;100390.91;5064407;28;20028;-73
2021/07/18 04:11:06;;;;;;;6.93;2.20;;;;;;;22.27;48.29;100389.22;5064353;28;20433;-73
2021/07/18 04:13:32;;;;;;;8.48;2.60;;;;;;;22.52;47.32;100383.34;5064388;28;20048;-73
2021/07/18 04:15:58;;;;;;;13.43;3.08;;;;;;;22.37;46.16;100363.09;5064434;28;20025;-73
2021/07/18 04:18:24;;;;;;;6.30;2.42;;;;;;;22.03;46.67;100361.47;5064265;28;20028;-72
2021/07/18 04:20:49;;;;;;;7.93;2.97;;;;;;;21.70;47.29;100365.09;5064332;28;20431;-73
2021/07/18 04:23:16;;;;;;;9.85;3.20;;;;;;;21.62;48.17;100378.72;5064354;28;20100;-73
2021/07/18 04:25:42;;;;;;;6.93;2.55;;;;;;;21.84;47.72;100369.63;5064140;28;20021;-74
2021/07/18 04:28:08;;;;;;;8.85;3.00;;;;;;;21.87;46.81;100382.66;5064104;28;20510;-74
2021/07/18 04:30:33;;;;;;;6.03;2.40;;;;;;;21.54;47.35;100392.34;5064132;28;20029;-74
2021/07/18 04:32:58;;;;;;;10.63;3.15;;;;;;;21.10;48.00;100393.84;5063978;28;20028;-72
2021/07/18 04:35:24;;;;;;;7.68;2.85;;;;;;;20.80;49.30;100397.97;5064039;28;20032;-72
2021/07/18 04:37:49;;;;;;;7.25;2.63;;;;;;;20.88;49.65;100383.53;5063907;28;20062;-72
2021/07/18 04:40:15;;;;;;;5.50;2.33;;;;;;;21.32;48.99;100370.69;5063495;28;20100;-72
2021/07/18 04:42:40;;;;;;;5.22;2.40;;;;;;;21.45;47.99;100378.81;5064022;28;20017;-73
2021/07/18 04:45:07;;;;;;;8.10;2.95;;;;;;;21.11;48.69;100407.88;5063850;28;20021;-72
2021/07/18 04:47:32;;;;;;;8.52;2.55;;;;;;;20.88;49.38;100409.91;5063811;28;20035;-73
2021/07/18 04:49:58;;;;;;;7.00;2.97;;;;;;;20.79;49.20;100403.31;5063543;28;20048;-73
2021/07/18 04:52:23;;;;;;;5.78;2.35;;;;;;;20.76;48.81;100401.69;5063583;28;20029;-73
2021/07/18 04:54:49;;;;;;;8.57;3.03;;;;;;;20.71;49.42;100401.06;5062141;28;20045;-73
2021/07/18 04:57:14;;;;;;;5.88;2.50;;;;;;;20.79;49.80;100372.53;5063337;28;20029;-72
2021/07/18 04:59:39;;;;;;;7.43;2.97;;;;;;;20.91;49.65;100383.38;5063261;28;20543;-72
2021/07/18 05:02:05;;;;;;;8.52;2.58;;;;;;;21.08;49.42;100373.72;5063681;28;20055;-73
2021/07/18 05:04:30;;;;;;;8.98;2.63;;;;;;;21.23;48.73;100383.44;5063680;28;20072;-72
2021/07/18 05:06:56;;;;;;;8.82;2.55;;;;;;;21.22;48.68;100386.16;5063619;28;20032;-73
2021/07/18 05:09:21;;;;;;;8.38;2.70;;;;;;;21.08;48.50;100392.19;5063309;28;20021;-72
2021/07/18 05:11:46;;;;;;;10.00;3.03;;;;;;;21.18;49.04;100385.50;5063590;28;20027;-72
2021/07/18 05:14:12;;;;;;;11.20;2.83;;;;;;;21.56;48.70;100373.78;5063578;28;20017;-73
2021/07/18 05:16:37;;;;;;;8.38;2.97;;;;;;;22.02;47.63;100375.66;5063607;28;20082;-73
2021/07/18 05:19:03;;;;;;;10.10;3.30;;;;;;;22.33;46.41;100366.88;5063193;28;20095;-72
2021/07/18 05:21:28;;;;;;;8.30;3.22;;;;;;;22.05;46.62;100369.31;5063260;28;20089;-73
2021/07/18 05:23:53;;;;;;;7.22;2.58;;;;;;;21.78;46.96;100367.31;5063417;28;20021;-72
2021/07/18 05:26:19;;;;;;;8.00;2.88;;;;;;;21.54;47.28;100363.31;5063413;28;20021;-73
2021/07/18 05:28:44;;;;;;;7.15;2.47;;;;;;;21.40;47.44;100358.78;5063494;28;20097;-72
2021/07/18 05:31:10;;;;;;;7.38;2.70;;;;;;;21.33;47.56;100367.09;5063487;28;20059;-71
2021/07/18 05:33:35;;;;;;;8.23;2.88;;;;;;;21.16;47.38;100372.41;5063452;28;20036;-73
2021/07/18 05:36:00;;;;;;;7.50;2.63;;;;;;;21.05;47.63;100380.84;5063279;28;20024;-72
2021/07/18 05:38:26;;;;;;;9.02;2.85;;;;;;;21.07;48.01;100388.69;5063159;28;20021;-71
2021/07/18 05:40:51;;;;;;;8.10;2.78;;;;;;;21.07;47.97;100382.59;5063233;28;20049;-72
2021/07/18 05:43:17;;;;;;;7.97;2.60;;;;;;;20.98;47.45;100392.69;5063165;28;20028;-73
2021/07/18 05:45:42;;;;;;;6.32;2.70;;;;;;;20.81;48.24;100383.81;5063369;28;20434;-73
2021/07/18 05:48:07;;;;;;;6.07;2.33;;;;;;;20.78;47.95;100373.44;5063200;28;20021;-72
2021/07/18 05:50:33;;;;;;;5.70;2.60;;;;;;;20.90;48.05;100361.41;5061625;28;20041;-75
2021/07/18 05:52:58;;;;;;;6.97;2.35;;;;;;;21.35;48.09;100371.38;5066982;28;20088;-74
2021/07/18 05:55:24;;;;;;;6.38;2.75;;;;;;;22.02;46.86;100382.72;5066733;28;20140;-74
2021/07/18 05:57:50;;;;;;;10.43;2.38;;;;;;;22.54;44.57;100385.88;5066997;28;20385;-73
2021/07/18 06:00:15;;;;;;;7.05;2.20;;;;;;;22.52;43.85;100375.41;5066714;28;20021;-73
2021/07/18 06:02:41;;;;;;;6.40;2.15;;;;;;;22.13;44.01;100380.31;5066713;28;20035;-73
2021/07/18 06:05:09;;;;;;;4.20;1.75;;;;;;;21.85;44.42;100387.19;5066605;28;20033;-73
2021/07/18 06:07:35;;;;;;;6.97;2.20;;;;;;;21.63;44.84;100393.63;5066825;28;20061;-73
2021/07/18 06:10:03;;;;;;;6.22;2.30;;;;;;;21.53;45.10;100395.91;5066528;28;20028;-72
2021/07/18 06:12:28;;;;;;;6.22;2.25;;;;;;;21.51;45.67;100392.53;5066916;28;20032;-74
2021/07/18 06:14:54;;;;;;;4.40;1.83;;;;;;;21.39;45.71;100394.03;5066693;28;20445;-73
2021/07/18 06:17:19;;;;;;;4.53;2.15;;;;;;;21.39;45.64;100403.75;5066629;28;20029;-72
2021/07/18 06:19:45;;;;;;;6.85;2.38;;;;;;;21.34;45.65;100400.50;5066371;28;20381;-73
2021/07/18 06:22:10;;;;;;;5.88;2.08;;;;;;;21.19;45.67;100397.75;5066606;28;20017;-74
2021/07/18 06:24:36;;;;;;;11.20;2.15;;;;;;;20.92;46.23;100393.00;5066556;28;20442;-72
2021/07/18 06:27:02;;;;;;;6.00;2.17;;;;;;;20.73;47.24;100401.84;5066462;28;20469;-73
2021/07/18 06:29:28;;;;;;;4.95;2.17;;;;;;;20.92;47.07;100395.66;5066361;28;20329;-74
2021/07/18 06:31:53;;;;;;;6.93;1.95;;;;;;;21.20;46.85;100410.00;5066407;28;20029;-73
2021/07/18 06:34:19;;;;;;;5.00;1.83;;;;;;;21.25;46.48;100409.75;5066652;28;20017;-72
2021/07/18 06:36:44;;;;;;;6.05;2.28;;;;;;;21.28;46.53;100397.25;5066338;28;20112;-73
2021/07/18 06:39:09;;;;;;;10.02;2.50;;;;;;;21.72;46.31;100397.56;5065880;28;20025;-72
2021/07/18 06:41:35;;;;;;;4.35;1.85;;;;;;;21.99;45.37;100404.91;5066125;28;20384;-73
2021/07/18 06:44:02;;;;;;;6.90;2.08;;;;;;;22.24;45.06;100399.97;5066455;28;20020;-73
2021/07/18 06:46:30;;;;;;;4.47;2.10;;;;;;;22.72;44.14;100393.72;5066259;28;20032;-74
2021/07/18 06:48:56;;;;;;;5.38;1.83;;;;;;;22.91;43.54;100404.03;5066048;28;20013;-74
2021/07/18 06:51:21;;;;;;;5.30;2.17;;;;;;;22.88;43.36;100406.88;5066144;28;20021;-73
2021/07/18 06:53:47;;;;;;;4.90;1.95;;;;;;;23.14;43.73;100399.13;5065732;28;20114;-73
2021/07/18 06:56:13;;;;;;;8.95;1.95;;;;;;;23.63;42.74;100397.00;5064564;28;20017;-73
2021/07/18 06:58:38;;;;;;;5.82;1.95;;;;;;;24.25;41.42;100401.00;5065905;28;20025;-72
2021/07/18 07:01:03;;;;;;;4.25;1.88;;;;;;;24.55;40.10;100399.06;5065675;28;20029;-72
2021/07/18 07:03:29;;;;;;;4.93;1.65;;;;;;;24.85;39.50;100386.41;5063006;28;20501;-72
2021/07/18 07:05:54;;;;;;;5.82;1.42;;;;;;;24.80;39.17;100393.84;5065862;28;20048;-74
2021/07/18 07:08:20;;;;;;;4.80;1.80;;;;;;;24.52;39.38;100383.34;5065802;28;20025;-73
2021/07/18 07:10:45;;;;;;;6.55;2.00;;;;;;;24.23;39.11;100381.66;5065511;28;20024;-73
2021/07/18 07:13:10;;;;;;;4.85;1.75;;;;;;;23.74;39.91;100375.13;5065617;28;20029;-73
2021/07/18 07:15:36;;;;;;;6.13;1.70;;;;;;;23.26;40.37;100374.53;5065403;28;20028;-73
2021/07/18 07:18:01;;;;;;;6.80;1.75;;;;;;;22.80;40.93;100377.38;5064118;28;20025;-73
2021/07/18 07:20:30;;;;;;;3.90;1.20;;;;;;;22.70;42.06;100390.31;5065157;28;20024;-74
2021/07/18 07:22:55;;;;;;;6.13;1.77;;;;;;;22.49;42.34;100380.88;5065447;28;20122;-74
2021/07/18 07:25:21;;;;;;;4.13;1.60;;;;;;;22.91;43.16;100393.44;5065189;28;20104;-73
2021/07/18 07:27:46;;;;;;;4.70;1.80;;;;;;;23.84;41.25;100389.50;5063800;28;20196;-74
2021/07/18 07:30:14;;;;;;;3.95;1.25;;;;;;;24.49;40.37;100386.16;5065161;28;20025;-74
2021/07/18 07:32:39;;;;;;;4.00;1.33;;;;;;;24.89;39.07;100382.63;5065107;28;20036;-74
2021/07/18 07:35:07;;;;;;;4.47;1.55;;;;;;;25.63;38.46;100373.03;5064885;28;20157;-74
2021/07/18 07:37:34;;;;;;;5.90;1.67;;;;;;;26.30;35.85;100373.44;5063660;28;20378;-75
2021/07/18 07:40:02;;;;;;;7.18;1.40;;;;;;;26.05;35.05;100367.31;5064876;28;20017;-75
2021/07/18 07:42:28;;;;;;;4.90;1.48;;;;;;;25.45;36.17;100377.84;5065085;28;20031;-75
2021/07/18 07:44:53;;;;;;;4.63;1.30;;;;;;;24.81;37.20;100393.75;5065013;28;20103;-74
2021/07/18 07:47:19;;;;;;;4.50;1.92;;;;;;;24.22;37.80;100385.28;5063405;28;20048;-74
2021/07/18 07:49:45;;;;;;;4.45;1.30;;;;;;;23.74;39.06;100380.41;5064560;28;20108;-74
2021/07/18 07:52:11;;;;;;;4.53;1.20;;;;;;;23.46;40.26;100372.47;5064781;28;20021;-74
2021/07/18 07:54:37;;;;;;;6.75;1.40;;;;;;;23.47;40.01;100373.28;5064284;28;20055;-73
2021/07/18 07:57:03;;;;;;;3.88;1.55;;;;;;;23.41;40.21;100379.84;5063471;28;20055;-73
2021/07/18 07:59:29;;;;;;;4.43;1.50;;;;;;;23.32;40.48;100377.75;5064317;28;20466;-74
2021/07/18 08:01:54;;;;;;;2.58;1.40;;;;;;;23.10;40.54;100372.00;5064451;28;20017;-74
2021/07/18 08:04:19;;;;;;;4.53;1.50;;;;;;;22.81;41.20;100376.44;5064303;28;20025;-74
2021/07/18 08:06:45;;;;;;;8.85;1.48;;;;;;;22.76;41.56;100382.84;5064644;28;20020;-74
2021/07/18 08:09:11;;;;;;;3.97;1.13;;;;;;;23.47;41.72;100387.41;5063088;28;20031;-75
2021/07/18 08:11:39;;;;;;;3.55;1.30;;;;;;;24.38;39.40;100373.63;5064523;28;20051;-75
2021/07/18 08:14:04;;;;;;;5.93;1.45;;;;;;;24.69;38.05;100379.53;5063751;28;20074;-75
2021/07/18 08:16:30;;;;;;;4.20;1.40;;;;;;;25.29;37.44;100364.84;5064394;28;20393;-74
2021/07/18 08:18:55;;;;;;;7.43;1.38;;;;;;;25.72;36.63;100369.69;5064278;28;20043;-73
2021/07/18 08:21:20;;;;;;;4.75;1.45;;;;;;;26.11;36.99;100379.31;5064234;28;20029;-73
2021/07/18 08:23:49;;;;;;;3.20;1.40;;;;;;;26.53;35.34;100378.00;5064268;28;20036;-73
2021/07/18 08:26:16;;;;;;;3.75;1.10;;;;;;;26.42;34.25;100376.19;5064378;28;20025;-74
2021/07/18 08:28:42;;;;;;;4.70;1.27;;;;;;;25.64;35.31;100382.69;5064133;28;20238;-74
2021/07/18 08:31:07;;;;;;;6.40;2.15;;;;;;;25.15;37.36;100384.38;5062925;28;20115;-75
2021/07/18 08:33:33;;;;;;;5.20;1.17;;;;;;;25.46;37.23;100387.53;5064268;28;20080;-75
2021/07/18 08:35:58;;;;;;;5.40;1.02;;;;;;;25.38;35.88;100375.63;5064280;28;20025;-75
2021/07/18 08:38:23;;;;;;;4.88;1.75;;;;;;;25.47;36.26;100379.44;5064156;28;20020;-75
2021/07/18 08:40:50;;;;;;;3.60;1.13;;;;;;;25.70;35.55;100365.47;5063763;28;20029;-74
2021/07/18 08:43:16;;;;;;;3.40;1.15;;;;;;;25.35;35.77;100372.38;5063989;28;20020;-75
2021/07/18 08:45:42;;;;;;;3.60;1.05;;;;;;;25.06;36.54;100376.16;5063840;28;20082;-75
2021/07/18 08:48:08;;;;;;;5.57;1.10;;;;;;;25.41;36.39;100379.88;5063800;28;20029;-75
2021/07/18 08:50:34;;;;;;;6.93;1.80;;;;;;;25.80;35.71;100373.63;5064030;28;20102;-75
2021/07/18 08:52:59;;;;;;;3.85;1.33;;;;;;;25.94;35.57;100370.75;5063899;28;20021;-75
2021/07/18 08:55:25;;;;;;;3.17;1.30;;;;;;;25.61;35.92;100381.13;5062491;28;20183;-75
2021/07/18 08:57:52;;;;;;;4.38;1.48;;;;;;;25.41;36.05;100392.31;5063769;28;20033;-74
2021/07/18 09:00:18;;;;;;;5.80;1.42;;;;;;;25.22;36.57;100391.84;5063474;28;20044;-75
2021/07/18 09:02:44;;;;;;;4.38;1.50;;;;;;;25.03;36.25;100388.78;5063774;28;20112;-75
2021/07/18 09:05:10;;;;;;;4.05;1.08;;;;;;;25.12;35.93;100388.97;5063745;28;20033;-75
2021/07/18 09:08:02;;;;;;;4.65;1.10;;;;;;;25.68;35.99;100389.50;5063505;28;20061;-75
2021/07/18 09:10:33;;;;;;;3.72;1.08;;;;;;;25.66;34.44;100395.88;5061175;28;20029;-76
2021/07/18 09:13:08;;;;;;;3.33;0.88;;;;;;;24.94;35.73;100407.03;5063507;28;20081;-74
2021/07/18 09:15:51;;;;;;;3.60;1.05;;;;;;;25.47;36.15;100382.09;5063447;28;20032;-74
2021/07/18 09:18:26;;;;;;;5.72;1.50;;;;;;;26.28;34.78;100388.66;5063481;28;20021;-74
2021/07/18 09:20:54;;;;;;;4.50;1.60;;;;;;;26.45;33.78;100392.75;5063292;28;20064;-74
2021/07/18 09:23:25;;;;;;;4.38;1.20;;;;;;;26.88;33.11;100401.06;5063526;28;20021;-74
2021/07/18 09:25:51;;;;;;;4.65;0.95;;;;;;;27.51;32.19;100398.88;5063680;28;20025;-75
2021/07/18 09:28:22;;;;;;;2.38;1.33;;;;;;;27.47;31.68;100399.13;5066154;28;20282;-75
2021/07/18 09:30:50;;;;;;;3.70;0.90;;;;;;;27.01;32.65;100405.44;5067591;28;20018;-74
2021/07/18 09:33:24;;;;;;;3.40;1.00;;;;;;;26.59;32.76;100397.03;5067561;28;20045;-74
2021/07/18 09:35:49;;;;;;;4.78;1.02;;;;;;;26.24;33.33;100400.53;5067189;28;20028;-73
2021/07/18 09:38:22;;;;;;;4.03;1.17;;;;;;;25.67;33.58;100398.44;5067308;28;20094;-74
2021/07/18 09:40:58;;;;;;;4.22;1.10;;;;;;;25.06;34.05;100405.34;5067006;28;20017;-73
2021/07/18 09:43:27;;;;;;;3.70;0.90;;;;;;;24.47;35.00;100394.25;5067286;28;20032;-73
2021/07/18 09:46:01;;;;;;;3.97;1.25;;;;;;;23.96;36.23;100406.38;5067175;28;20488;-73
2021/07/18 09:48:40;;;;;;;2.83;1.30;;;;;;;24.16;36.73;100406.91;5067171;28;20099;-74
2021/07/18 09:51:12;;;;;;;3.20;1.00;;;;;;;24.58;35.92;100392.66;5066902;28;20673;-73
2021/07/18 09:53:41;;;;;;;9.00;1.80;;;;;;;25.00;35.59;100398.66;5067091;28;20072;-73
2021/07/18 09:56:10;;;;;;;5.10;1.13;;;;;;;24.98;34.96;100413.88;5067150;28;20393;-74
2021/07/18 09:58:50;;;;;;;6.55;1.10;;;;;;;24.94;36.00;100414.16;5066936;28;20057;-74
2021/07/18 10:01:17;;;;;;;7.22;1.10;;;;;;;24.83;36.04;100420.19;5066814;28;20025;-74
2021/07/18 10:03:50;;;;;;;5.38;1.23;;;;;;;24.83;35.78;100409.56;5066876;28;20036;-74
2021/07/18 10:06:17;;;;;;;3.88;1.15;;;;;;;24.53;35.59;100408.91;5066847;28;20052;-73
2021/07/18 10:08:44;;;;;;;5.00;1.00;;;;;;;24.18;35.47;100415.63;5066903;28;20025;-74
2021/07/18 10:11:22;;;;;;;3.38;0.95;;;;;;;24.15;36.44;100410.53;5066626;28;20025;-74
2021/07/18 10:13:50;;;;;;;7.22;1.20;;;;;;;24.83;36.53;100396.28;5066616;28;20299;-74
2021/07/18 10:16:18;;;;;;;5.70;1.48;;;;;;;25.32;35.47;100415.09;5066544;28;20025;-75
2021/07/18 10:18:45;;;;;;;4.05;1.40;;;;;;;25.12;35.38;100420.84;5066551;28;20029;-74
2021/07/18 10:21:14;;;;;;;6.32;1.13;;;;;;;24.76;35.32;100425.09;5064780;28;20029;-74
2021/07/18 10:23:41;;;;;;;5.57;1.45;;;;;;;24.43;36.14;100424.59;5066782;28;20089;-74
2021/07/18 10:26:09;;;;;;;5.30;1.42;;;;;;;24.07;36.31;100412.78;5066343;28;20032;-74
2021/07/18 10:28:35;;;;;;;3.25;0.98;;;;;;;23.58;37.10;100413.22;5066557;28;20029;-74
2021/07/18 10:31:07;;;;;;;5.82;1.50;;;;;;;23.13;38.06;100414.16;5066631;28;20020;-73
2021/07/18 10:33:34;;;;;;;5.95;1.20;;;;;;;22.73;38.97;100420.06;5066360;28;20021;-73
2021/07/18 10:36:01;;;;;;;2.75;1.33;;;;;;;22.48;39.99;100416.22;5066594;28;20056;-73
2021/07/18 10:38:27;;;;;;;5.10;1.73;;;;;;;22.48;40.16;100416.22;5066131;28;20032;-73
2021/07/18 10:40:55;;;;;;;4.70;1.17;;;;;;;22.44;40.15;100414.69;5066237;28;20017;-73
2021/07/18 10:43:36;;;;;;;6.32;1.40;;;;;;;22.72;40.46;100421.03;5066044;28;20052;-71
2021/07/18 10:46:03;;;;;;;2.80;1.00;;;;;;;23.49;39.59;100417.31;5066373;28;20025;-72
2021/07/18 10:48:41;;;;;;;6.13;1.60;;;;;;;23.69;39.49;100423.13;5064626;28;20044;-73
2021/07/18 10:51:07;;;;;;;8.60;1.70;;;;;;;23.57;39.43;100424.75;5066099;28;20477;-72
2021/07/18 10:53:34;;;;;;;6.78;1.98;;;;;;;23.15;40.11;100422.88;5065723;28;20108;-72
2021/07/18 10:56:01;;;;;;;6.57;1.90;;;;;;;23.39;40.51;100418.81;5065579;28;20396;-72
2021/07/18 10:58:39;;;;;;;7.38;1.90;;;;;;;23.60;40.18;100421.06;5064644;28;20029;-72
2021/07/18 11:01:24;;;;;;;4.53;1.60;;;;;;;24.27;38.80;100432.72;5065824;28;20052;-72
2021/07/18 11:03:50;;;;;;;5.75;1.35;;;;;;;24.23;39.36;100432.06;5053691;28;20064;-73
2021/07/18 11:06:21;;;;;;;4.78;1.85;;;;;;;24.33;39.04;100426.19;5065863;28;20029;-73
2021/07/18 11:09:11;;;;;;;6.03;1.80;;;;;;;24.46;38.14;100419.06;5065739;28;20433;-72
2021/07/18 11:11:41;;;;;;;4.43;1.63;;;;;;;24.34;38.28;100419.91;5065377;28;20021;-73
2021/07/18 11:14:24;;;;;;;5.72;1.73;;;;;;;24.17;38.73;100419.22;5065364;28;20028;-72
2021/07/18 11:16:53;;;;;;;7.90;1.73;;;;;;;24.26;38.77;100423.06;5065700;28;20021;-73
2021/07/18 11:19:37;;;;;;;5.03;1.33;;;;;;;24.38;38.34;100416.09;5065222;28;20112;-72
2021/07/18 11:22:11;;;;;;;4.57;1.23;;;;;;;24.27;37.84;100419.47;5065423;28;20076;-73